createdAt,value
2023-04-17T00:00:36.480Z,6.97
2023-04-17T00:03:05.648Z,6.83
2023-04-17T00:05:34.346Z,6.80
2023-04-17T00:08:03.071Z,6.87
2023-04-17T00:10:31.576Z,6.63
2023-04-17T00:13:00.391Z,6.47
2023-04-17T00:15:29.031Z,6.80
2023-04-17T00:17:57.584Z,7.23
2023-04-17T00:20:26.182Z,6.73
2023-04-17T00:22:54.717Z,6.80
2023-04-17T00:25:23.641Z,6.97
2023-04-17T00:27:52.439Z,6.40
2023-04-17T00:30:20.928Z,7.50
2023-04-17T00:32:49.504Z,7.53
2023-04-17T00:35:18.367Z,9.33
2023-04-17T00:37:48.221Z,8.53
2023-04-17T00:40:16.736Z,8.30
2023-04-17T00:42:47.483Z,8.67
2023-04-17T00:45:16.555Z,9.68
2023-04-17T00:47:45.270Z,8.60
2023-04-17T00:50:14.119Z,8.47
2023-04-17T00:52:43.034Z,9.33
2023-04-17T00:55:11.461Z,9.37
2023-04-17T00:57:40.440Z,9.07
2023-04-17T01:00:10.176Z,8.47
2023-04-17T01:02:39.341Z,7.65
2023-04-17T01:05:08.301Z,7.43
2023-04-17T01:07:37.195Z,7.80
2023-04-17T01:10:06.408Z,7.30
2023-04-17T01:12:34.917Z,7.60
2023-04-17T01:15:04.668Z,6.72
2023-04-17T01:17:33.697Z,7.45
2023-04-17T01:20:04.232Z,7.60
2023-04-17T01:22:32.485Z,7.37
2023-04-17T01:25:01.519Z,7.25
2023-04-17T01:27:31.562Z,7.60
2023-04-17T01:30:00.611Z,7.17
2023-04-17T01:32:30.987Z,7.87
2023-04-17T01:35:00.276Z,7.07
2023-04-17T01:37:29.131Z,7.40
2023-04-17T01:39:58.922Z,6.75
2023-04-17T01:42:27.508Z,7.60
2023-04-17T01:44:56.353Z,6.55
2023-04-17T01:47:24.908Z,7.00
2023-04-17T01:49:53.797Z,6.70
2023-04-17T01:52:22.035Z,6.70
2023-04-17T01:54:50.533Z,6.37
2023-04-17T01:57:24.284Z,5.73
2023-04-17T01:59:53.111Z,6.97
2023-04-17T02:02:21.398Z,6.57
2023-04-17T02:04:50.920Z,6.43
2023-04-17T02:07:19.284Z,6.73
2023-04-17T02:09:47.862Z,8.07
2023-04-17T02:12:16.968Z,6.30
2023-04-17T02:14:45.728Z,6.67
2023-04-17T02:17:14.251Z,6.47
2023-04-17T02:19:43.057Z,6.37
2023-04-17T02:22:11.345Z,6.10
2023-04-17T02:24:39.851Z,6.53
2023-04-17T02:27:08.438Z,5.50
2023-04-17T02:29:37.245Z,6.95
2023-04-17T02:32:05.594Z,7.57
2023-04-17T02:34:34.456Z,6.67
2023-04-17T02:37:03.551Z,6.60
2023-04-17T02:39:33.587Z,7.15
2023-04-17T02:42:03.003Z,7.47
2023-04-17T02:44:31.615Z,7.47
2023-04-17T02:47:00.550Z,7.47
2023-04-17T02:49:31.609Z,8.03
2023-04-17T02:52:00.956Z,6.55
2023-04-17T02:54:29.524Z,8.00
2023-04-17T02:56:58.587Z,8.17
2023-04-17T02:59:27.760Z,8.33
2023-04-17T03:01:57.927Z,8.03
2023-04-17T03:04:29.796Z,8.03
2023-04-17T03:09:26.066Z,8.43
2023-04-17T03:11:55.533Z,9.68
2023-04-17T03:14:23.823Z,9.93
2023-04-17T03:16:52.477Z,9.67
2023-04-17T03:19:22.718Z,10.37
2023-04-17T03:21:51.619Z,9.63
2023-04-17T03:24:20.319Z,9.80
2023-04-17T03:26:48.834Z,9.47
2023-04-17T03:29:19.382Z,10.68
2023-04-17T03:31:48.251Z,9.93
2023-04-17T03:34:20.527Z,11.33
2023-04-17T03:36:49.869Z,11.25
2023-04-17T03:39:18.427Z,12.63
2023-04-17T03:41:47.053Z,12.33
2023-04-17T03:44:17.163Z,12.17
2023-04-17T03:46:46.769Z,12.93
2023-04-17T03:49:15.158Z,11.57
2023-04-17T03:51:43.932Z,12.57
2023-04-17T03:54:13.937Z,11.60
2023-04-17T03:56:43.549Z,12.97
2023-04-17T03:59:12.639Z,12.10
2023-04-17T04:01:45.369Z,11.38
2023-04-17T04:04:15.155Z,13.40
2023-04-17T04:06:44.960Z,13.30
2023-04-17T04:09:15.468Z,13.72
2023-04-17T04:11:45.090Z,15.03
2023-04-17T04:14:13.435Z,13.73
2023-04-17T04:16:42.646Z,14.30
2023-04-17T04:19:12.410Z,13.80
2023-04-17T04:21:42.265Z,14.53
2023-04-17T04:24:13.254Z,15.40
2023-04-17T04:29:11.852Z,13.90
2023-04-17T04:31:57.951Z,14.17
2023-04-17T04:34:29.927Z,15.53
2023-04-17T04:36:58.180Z,13.40
2023-04-17T04:39:31.609Z,14.80
2023-04-17T04:42:01.890Z,13.67
2023-04-17T04:44:30.183Z,13.73
2023-04-17T04:46:58.817Z,14.27
2023-04-17T04:49:27.756Z,15.57
2023-04-17T04:51:56.503Z,14.10
2023-04-17T04:54:26.445Z,14.63
2023-04-17T04:56:56.938Z,14.63
2023-04-17T04:59:25.523Z,15.00
2023-04-17T05:01:56.809Z,14.07
2023-04-17T05:04:26.898Z,13.27
2023-04-17T05:06:57.771Z,13.73
2023-04-17T05:09:27.064Z,14.20
2023-04-17T05:11:57.572Z,13.22
2023-04-17T05:14:26.170Z,11.27
2023-04-17T05:16:57.899Z,12.40
2023-04-17T05:19:26.906Z,13.37
2023-04-17T05:21:57.460Z,13.32
2023-04-17T05:24:26.451Z,13.90
2023-04-17T05:26:56.815Z,13.55
2023-04-17T05:29:25.490Z,12.60
2023-04-17T05:31:55.800Z,13.53
2023-04-17T05:34:29.167Z,12.37
2023-04-17T05:36:58.102Z,13.00
2023-04-17T05:39:27.296Z,13.00
2023-04-17T05:41:56.417Z,13.37
2023-04-17T05:44:24.929Z,14.00
2023-04-17T05:46:55.200Z,13.27
2023-04-17T05:49:23.863Z,13.20
2023-04-17T05:51:52.889Z,12.58
2023-04-17T05:54:21.453Z,11.87
2023-04-17T05:56:50.156Z,12.37
2023-04-17T05:59:18.808Z,13.60
2023-04-17T06:01:47.350Z,13.27
2023-04-17T06:04:19.462Z,13.57
2023-04-17T06:06:48.676Z,12.67
2023-04-17T06:09:17.249Z,14.10
2023-04-17T06:11:45.961Z,14.13
2023-04-17T06:14:14.514Z,12.57
2023-04-17T06:16:43.459Z,13.40
2023-04-17T06:19:12.380Z,12.23
2023-04-17T06:21:41.152Z,12.40
2023-04-17T06:24:09.586Z,14.43
2023-04-17T06:26:39.469Z,14.73
2023-04-17T06:29:09.103Z,13.63
2023-04-17T06:31:38.427Z,12.57
2023-04-17T06:34:07.184Z,10.77
2023-04-17T06:36:37.457Z,10.43
2023-04-17T06:39:06.124Z,10.40
2023-04-17T06:41:34.686Z,8.80
2023-04-17T06:44:03.499Z,8.55
2023-04-17T06:46:33.471Z,8.90
2023-04-17T06:49:03.485Z,8.47
2023-04-17T06:51:32.078Z,9.67
2023-04-17T06:54:00.764Z,8.60
2023-04-17T06:56:29.315Z,8.17
2023-04-17T06:58:57.955Z,9.50
2023-04-17T07:01:27.854Z,9.17
2023-04-17T07:03:57.005Z,9.63
2023-04-17T07:06:25.990Z,8.93
2023-04-17T07:08:55.727Z,9.20
2023-04-17T07:11:24.332Z,8.07
2023-04-17T07:13:52.800Z,9.57
2023-04-17T07:16:24.293Z,7.63
2023-04-17T07:18:52.904Z,8.63
2023-04-17T07:21:21.191Z,9.17
2023-04-17T07:23:49.812Z,9.03
2023-04-17T07:26:18.417Z,8.77
2023-04-17T07:28:47.012Z,9.00
2023-04-17T07:31:15.226Z,7.80
2023-04-17T07:33:44.345Z,8.90
2023-04-17T07:36:13.305Z,7.77
2023-04-17T07:38:42.256Z,8.05
2023-04-17T07:41:12.341Z,7.30
2023-04-17T07:43:41.103Z,7.37
2023-04-17T07:46:09.371Z,7.10
2023-04-17T07:48:37.906Z,7.23
2023-04-17T07:51:07.613Z,6.37
2023-04-17T07:53:37.248Z,5.70
2023-04-17T07:56:06.423Z,6.73
2023-04-17T07:58:35.767Z,6.13
2023-04-17T08:01:06.979Z,6.28
2023-04-17T08:03:35.810Z,6.97
2023-04-17T08:06:05.368Z,7.25
2023-04-17T08:08:34.085Z,6.23
2023-04-17T08:11:02.679Z,5.23
2023-04-17T08:13:33.275Z,5.23
2023-04-17T08:16:01.675Z,5.20
2023-04-17T08:18:31.871Z,5.10
2023-04-17T08:21:00.402Z,5.77
2023-04-17T08:23:28.959Z,6.10
2023-04-17T08:25:58.154Z,5.57
2023-04-17T08:28:26.725Z,5.10
2023-04-17T08:30:55.507Z,5.92
2023-04-17T08:33:23.979Z,5.17
2023-04-17T08:35:52.473Z,5.30
2023-04-17T08:38:20.959Z,5.17
2023-04-17T08:40:51.910Z,6.50
2023-04-17T08:43:21.671Z,6.17
2023-04-17T08:45:55.299Z,6.87
2023-04-17T08:48:24.550Z,5.43
2023-04-17T08:50:53.925Z,6.60
2023-04-17T08:53:22.370Z,6.07
2023-04-17T08:55:50.959Z,6.20
2023-04-17T08:58:20.822Z,5.50
2023-04-17T09:00:49.280Z,5.50
2023-04-17T09:03:17.721Z,6.77
2023-04-17T09:05:46.866Z,6.30
2023-04-17T09:08:16.235Z,5.80
2023-04-17T09:10:46.010Z,7.10
2023-04-17T09:13:15.745Z,6.23
2023-04-17T09:15:45.045Z,6.93
2023-04-17T09:18:27.372Z,6.30
2023-04-17T09:20:57.391Z,6.03
2023-04-17T09:23:27.051Z,6.43
2023-04-17T09:25:57.350Z,6.78
2023-04-17T09:28:26.233Z,5.53
2023-04-17T09:30:54.714Z,6.17
2023-04-17T09:33:23.029Z,5.67
2023-04-17T09:35:51.601Z,5.70
2023-04-17T09:38:21.898Z,6.45
2023-04-17T09:40:50.673Z,6.47
2023-04-17T09:43:20.768Z,5.67
2023-04-17T09:45:49.145Z,7.00
2023-04-17T09:48:18.243Z,7.13
2023-04-17T09:50:47.217Z,7.47
2023-04-17T09:53:16.808Z,6.43
2023-04-17T09:55:45.633Z,7.50
2023-04-17T09:58:14.138Z,6.93
2023-04-17T10:00:43.003Z,7.78
2023-04-17T10:03:13.219Z,7.97
2023-04-17T10:05:41.809Z,6.37
2023-04-17T10:08:10.286Z,7.30
2023-04-17T10:10:39.330Z,5.42
2023-04-17T10:13:08.989Z,7.37
2023-04-17T10:15:38.242Z,7.93
2023-04-17T10:18:24.225Z,8.17
2023-04-17T10:20:54.228Z,7.27
2023-04-17T10:23:27.537Z,7.20
2023-04-17T10:26:14.742Z,7.97
2023-04-17T10:28:50.180Z,6.53
2023-04-17T10:31:18.654Z,6.63
2023-04-17T10:33:51.917Z,7.43
2023-04-17T10:36:38.329Z,6.80
2023-04-17T10:39:13.285Z,6.27
2023-04-17T10:41:43.582Z,6.30
2023-04-17T10:44:11.801Z,6.43
2023-04-17T10:46:41.941Z,7.10
2023-04-17T10:49:10.743Z,6.73
2023-04-17T10:51:40.647Z,6.10
2023-04-17T10:54:13.433Z,6.03
2023-04-17T10:56:44.796Z,5.85
2023-04-17T11:01:52.757Z,6.42
2023-04-17T11:04:25.771Z,6.45
2023-04-17T11:06:55.554Z,6.00
2023-04-17T11:09:25.003Z,6.37
2023-04-17T11:11:54.270Z,5.78
2023-04-17T11:14:23.636Z,5.87
2023-04-17T11:16:52.713Z,6.03
2023-04-17T11:19:22.781Z,6.30
2023-04-17T11:21:52.323Z,6.70
2023-04-17T11:24:24.434Z,6.33
2023-04-17T11:26:53.208Z,6.57
2023-04-17T11:29:22.214Z,6.23
2023-04-17T11:31:52.206Z,6.03
2023-04-17T11:34:20.824Z,5.57
2023-04-17T11:36:59.645Z,5.87
2023-04-17T11:39:32.388Z,5.10
2023-04-17T11:42:02.521Z,5.03
2023-04-17T11:44:30.979Z,4.77
2023-04-17T11:46:59.768Z,5.50
2023-04-17T11:49:29.468Z,5.27
2023-04-17T11:51:59.574Z,4.87
2023-04-17T11:54:31.540Z,4.37
2023-04-17T11:57:01.904Z,4.57
2023-04-17T11:59:31.647Z,4.60
2023-04-17T12:02:02.045Z,4.28
2023-04-17T12:04:32.978Z,4.40
2023-04-17T12:07:02.017Z,3.77
2023-04-17T12:09:33.965Z,5.13
2023-04-17T12:12:04.106Z,4.53
2023-04-17T12:14:32.786Z,4.13
2023-04-17T12:17:01.412Z,4.57
2023-04-17T12:19:31.591Z,4.97
2023-04-17T12:21:59.890Z,3.30
2023-04-17T12:24:28.452Z,4.87
2023-04-17T12:26:58.498Z,5.10
2023-04-17T12:29:40.620Z,5.30
2023-04-17T12:31:58.268Z,4.80
2023-04-17T12:34:27.943Z,5.03
2023-04-17T12:36:56.690Z,5.53
2023-04-17T12:39:25.155Z,5.27
2023-04-17T12:41:53.734Z,5.07
2023-04-17T12:44:22.008Z,4.63
2023-04-17T12:46:50.764Z,4.20
2023-04-17T12:49:20.332Z,4.70
2023-04-17T12:51:49.109Z,4.00
2023-04-17T12:54:17.322Z,4.50
2023-04-17T12:56:45.892Z,4.80
2023-04-17T12:59:14.377Z,4.12
2023-04-17T13:01:43.593Z,4.03
2023-04-17T13:04:13.032Z,3.40
2023-04-17T13:06:42.081Z,3.50
2023-04-17T13:09:10.657Z,3.90
2023-04-17T13:11:39.201Z,3.47
2023-04-17T13:14:09.111Z,3.40
2023-04-17T13:16:37.403Z,3.30
2023-04-17T13:19:05.596Z,2.53
2023-04-17T13:21:34.239Z,2.87
2023-04-17T13:24:02.994Z,3.00
2023-04-17T13:26:31.488Z,2.63
2023-04-17T13:29:00.348Z,2.65
2023-04-17T13:31:29.003Z,2.80
2023-04-17T13:33:57.676Z,2.70
2023-04-17T13:36:26.171Z,3.13
2023-04-17T13:38:54.662Z,3.50
2023-04-17T13:41:23.084Z,2.90
2023-04-17T13:43:51.801Z,3.27
2023-04-17T13:46:20.416Z,2.20
2023-04-17T13:48:49.122Z,2.57
2023-04-17T13:51:17.665Z,2.30
2023-04-17T13:53:46.131Z,2.20
2023-04-17T13:56:14.718Z,2.60
2023-04-17T13:58:44.535Z,2.40
2023-04-17T14:01:13.977Z,2.53
2023-04-17T14:03:45.401Z,3.20
2023-04-17T14:06:12.761Z,2.23
2023-04-17T14:08:43.632Z,2.53
2023-04-17T14:11:11.473Z,2.07
2023-04-17T14:13:40.125Z,2.40
2023-04-17T14:16:08.860Z,1.97
2023-04-17T14:18:37.499Z,2.17
2023-04-17T14:21:06.193Z,2.57
2023-04-17T14:23:34.726Z,2.00
2023-04-17T14:26:03.303Z,1.90
2023-04-17T14:28:31.769Z,1.93
2023-04-17T14:31:00.430Z,1.40
2023-04-17T14:33:28.987Z,1.73
2023-04-17T14:35:57.505Z,2.70
2023-04-17T14:38:26.352Z,2.07
2023-04-17T14:40:54.827Z,2.10
2023-04-17T14:43:23.105Z,1.73
2023-04-17T14:45:51.673Z,2.53
2023-04-17T14:48:20.823Z,2.13
2023-04-17T14:50:50.013Z,2.17
2023-04-17T14:53:20.768Z,2.27
2023-04-17T14:55:48.710Z,2.17
2023-04-17T14:58:16.899Z,2.43
2023-04-17T15:00:45.734Z,2.60
2023-04-17T15:03:14.450Z,3.13
2023-04-17T15:05:42.971Z,2.43
2023-04-17T15:08:11.218Z,3.07
2023-04-17T15:10:50.869Z,2.20
2023-04-17T15:13:11.309Z,2.17
2023-04-17T15:15:40.551Z,2.30
2023-04-17T15:18:10.176Z,1.83
2023-04-17T15:20:38.644Z,2.40
2023-04-17T15:23:07.439Z,1.80
2023-04-17T15:25:36.092Z,2.57
2023-04-17T15:28:04.959Z,2.27
2023-04-17T15:30:33.696Z,2.37
2023-04-17T15:33:02.208Z,2.50
2023-04-17T15:35:31.231Z,2.80
2023-04-17T15:37:59.858Z,3.13
2023-04-17T15:40:28.400Z,3.57
2023-04-17T15:42:57.175Z,2.87
2023-04-17T15:45:26.084Z,3.00
2023-04-17T15:47:55.014Z,3.20
2023-04-17T15:50:23.760Z,3.47
2023-04-17T15:52:52.248Z,4.77
2023-04-17T15:55:20.819Z,3.73
2023-04-17T15:57:49.372Z,3.63
2023-04-17T16:00:17.902Z,3.43
2023-04-17T16:02:48.152Z,3.20
2023-04-17T16:05:16.609Z,3.33
2023-04-17T16:07:45.659Z,3.60
2023-04-17T16:10:14.782Z,3.33
2023-04-17T16:12:43.960Z,3.30
2023-04-17T16:15:12.241Z,3.40
2023-04-17T16:17:41.548Z,3.30
2023-04-17T16:20:13.856Z,3.27
2023-04-17T16:22:42.650Z,3.60
2023-04-17T16:25:14.114Z,3.27
2023-04-17T16:27:42.321Z,3.72
2023-04-17T16:30:10.846Z,3.87
2023-04-17T16:32:39.665Z,3.77
2023-04-17T16:35:08.422Z,3.23
2023-04-17T16:37:37.328Z,3.30
2023-04-17T16:40:06.565Z,3.70
2023-04-17T16:42:35.333Z,4.08
2023-04-17T16:45:05.167Z,3.60
2023-04-17T16:47:33.764Z,2.57
2023-04-17T16:50:02.257Z,3.23
2023-04-17T16:52:30.797Z,2.87
2023-04-17T16:54:59.763Z,3.20
2023-04-17T16:57:28.247Z,3.00
2023-04-17T16:59:56.722Z,3.87
2023-04-17T17:02:25.424Z,3.20
2023-04-17T17:04:54.079Z,3.17
2023-04-17T17:07:22.551Z,3.43
2023-04-17T17:09:51.111Z,4.00
2023-04-17T17:12:19.325Z,4.07
2023-04-17T17:14:48.075Z,3.47
2023-04-17T17:17:16.644Z,3.43
2023-04-17T17:19:45.319Z,3.90
2023-04-17T17:22:13.486Z,3.17
2023-04-17T17:24:42.077Z,3.73
2023-04-17T17:27:10.573Z,3.60
2023-04-17T17:29:39.056Z,3.13
2023-04-17T17:32:09.113Z,4.40
2023-04-17T17:34:37.430Z,3.37
2023-04-17T17:37:05.764Z,4.47
2023-04-17T17:39:34.709Z,3.75
2023-04-17T17:42:04.850Z,3.17
2023-04-17T17:44:33.340Z,3.43
2023-04-17T17:47:06.401Z,4.20
2023-04-17T17:49:34.951Z,4.47
2023-04-17T17:52:03.416Z,4.30
2023-04-17T17:54:33.454Z,4.13
2023-04-17T17:57:02.678Z,3.50
2023-04-17T17:59:31.500Z,3.70
2023-04-17T18:02:01.497Z,3.67
2023-04-17T18:04:30.274Z,3.63
2023-04-17T18:06:58.782Z,4.07
2023-04-17T18:09:27.359Z,4.17
2023-04-17T18:11:55.834Z,3.60
2023-04-17T18:14:24.397Z,4.27
2023-04-17T18:16:53.078Z,5.00
2023-04-17T18:19:21.564Z,5.63
2023-04-17T18:21:50.656Z,4.83
2023-04-17T18:24:19.264Z,5.27
2023-04-17T18:26:48.316Z,6.10
2023-04-17T18:29:16.819Z,4.27
2023-04-17T18:31:45.946Z,3.40
2023-04-17T18:34:17.929Z,3.83
2023-04-17T18:36:46.409Z,5.27
2023-04-17T18:39:15.158Z,5.10
2023-04-17T18:41:43.747Z,4.80
2023-04-17T18:44:12.511Z,5.43
2023-04-17T18:46:41.286Z,5.67
2023-04-17T18:49:09.587Z,5.13
2023-04-17T18:51:38.001Z,4.87
2023-04-17T18:54:08.194Z,5.17
2023-04-17T18:56:36.681Z,5.67
2023-04-17T18:59:05.267Z,6.10
2023-04-17T19:01:33.859Z,5.33
2023-04-17T19:04:03.219Z,5.13
2023-04-17T19:06:31.777Z,4.93
2023-04-17T19:09:00.556Z,4.75
2023-04-17T19:11:29.060Z,4.30
2023-04-17T19:13:57.610Z,5.13
2023-04-17T19:16:26.177Z,5.00
2023-04-17T19:18:56.337Z,5.03
2023-04-17T19:21:24.813Z,4.60
2023-04-17T19:23:53.370Z,5.57
2023-04-17T19:26:21.558Z,4.43
2023-04-17T19:28:50.116Z,4.20
2023-04-17T19:31:18.634Z,5.40
2023-04-17T19:33:47.271Z,5.13
2023-04-17T19:36:15.532Z,4.87
2023-04-17T19:38:44.055Z,4.80
2023-04-17T19:41:19.333Z,4.67
2023-04-17T19:43:53.409Z,4.53
2023-04-17T19:46:22.524Z,5.80
2023-04-17T19:48:52.190Z,5.03
2023-04-17T19:51:20.652Z,4.73
2023-04-17T19:53:49.196Z,5.03
2023-04-17T19:56:17.389Z,5.67
2023-04-17T19:58:47.505Z,5.53
2023-04-17T20:01:16.116Z,5.57
2023-04-17T20:03:45.356Z,5.20
2023-04-17T20:06:13.961Z,5.10
2023-04-17T20:08:43.024Z,4.77
2023-04-17T20:11:13.130Z,5.53
2023-04-17T20:13:41.366Z,6.30
2023-04-17T20:16:09.543Z,5.97
2023-04-17T20:18:38.168Z,5.50
2023-04-17T20:21:06.957Z,5.77
2023-04-17T20:23:35.804Z,6.43
2023-04-17T20:26:04.414Z,6.17
2023-04-17T20:28:32.938Z,6.13
2023-04-17T20:31:01.465Z,7.23
2023-04-17T20:33:30.331Z,5.95
2023-04-17T20:35:58.978Z,7.10
2023-04-17T20:38:27.453Z,6.53
2023-04-17T20:40:56.007Z,6.83
2023-04-17T20:43:24.483Z,6.83
2023-04-17T20:45:55.756Z,7.22
2023-04-17T20:48:24.947Z,6.37
2023-04-17T20:50:53.444Z,7.47
2023-04-17T20:53:21.662Z,6.20
2023-04-17T20:55:50.213Z,6.93
2023-04-17T20:58:19.236Z,6.63
2023-04-17T21:03:17.656Z,7.03
2023-04-17T21:05:46.624Z,7.55
2023-04-17T21:08:14.842Z,6.80
2023-04-17T21:10:43.397Z,6.47
2023-04-17T21:13:11.905Z,7.20
2023-04-17T21:15:42.089Z,7.37
2023-04-17T21:18:10.751Z,6.97
2023-04-17T21:20:39.833Z,7.43
2023-04-17T21:23:08.716Z,7.07
2023-04-17T21:25:37.303Z,7.40
2023-04-17T21:28:05.994Z,7.10
2023-04-17T21:30:34.676Z,8.33
2023-04-17T21:33:03.859Z,7.28
2023-04-17T21:35:32.665Z,7.20
2023-04-17T21:38:01.470Z,8.20
2023-04-17T21:40:33.396Z,7.60
2023-04-17T21:43:00.859Z,7.53
2023-04-17T21:45:31.872Z,7.83
2023-04-17T21:48:00.597Z,7.75
2023-04-17T21:50:29.217Z,7.97
2023-04-17T21:52:58.017Z,8.58
2023-04-17T21:55:26.594Z,7.43
2023-04-17T21:57:55.452Z,8.08
2023-04-17T22:00:23.687Z,8.80
2023-04-17T22:02:52.657Z,8.40
2023-04-17T22:05:21.305Z,8.57
2023-04-17T22:07:54.820Z,8.93
2023-04-17T22:10:19.583Z,9.10
2023-04-17T22:12:48.196Z,8.20
2023-04-17T22:15:16.862Z,8.67
2023-04-17T22:17:45.455Z,8.97
2023-04-17T22:20:14.033Z,8.50
2023-04-17T22:22:42.829Z,8.03
2023-04-17T22:25:11.280Z,6.77
2023-04-17T22:27:39.797Z,9.50
2023-04-17T22:30:08.556Z,8.27
2023-04-17T22:32:37.088Z,8.10
2023-04-17T22:35:05.646Z,8.37
2023-04-17T22:37:34.149Z,8.03
2023-04-17T22:40:04.757Z,8.25
2023-04-17T22:42:33.145Z,7.37
2023-04-17T22:45:01.632Z,8.57
2023-04-17T22:47:30.218Z,7.90
2023-04-17T22:49:59.145Z,8.47
2023-04-17T22:52:27.670Z,7.77
2023-04-17T22:54:56.255Z,7.87
2023-04-17T22:57:24.762Z,8.03
2023-04-17T22:59:53.564Z,7.80
2023-04-17T23:02:21.818Z,8.30
2023-04-17T23:04:50.636Z,7.60
2023-04-17T23:07:19.508Z,8.50
2023-04-17T23:09:48.308Z,7.63
2023-04-17T23:12:16.559Z,7.90
2023-04-17T23:14:45.985Z,8.13
2023-04-17T23:17:14.642Z,8.10
2023-04-17T23:19:43.487Z,7.97
2023-04-17T23:22:11.747Z,8.50
2023-04-17T23:24:40.609Z,7.45
2023-04-17T23:27:08.920Z,7.63
2023-04-17T23:29:37.450Z,7.90
2023-04-17T23:32:07.291Z,7.97
2023-04-17T23:34:37.583Z,6.97
2023-04-17T23:37:06.589Z,7.97
2023-04-17T23:39:35.297Z,8.47
2023-04-17T23:42:05.501Z,7.30
2023-04-17T23:44:35.779Z,8.63
2023-04-17T23:47:06.196Z,7.20
2023-04-17T23:49:34.503Z,8.20
2023-04-17T23:52:03.124Z,8.33
2023-04-17T23:54:31.959Z,8.45
2023-04-17T23:57:01.021Z,8.38
2023-04-17T23:59:29.976Z,8.33
